East Springfield, Pennsylvania
Current Conditions -  °F | °C
As of 7:51 PM on Saturday 22 Nov 2014 (Local Time) from KERI Reporting Station
Overcast Overcast  
Wind Chill: 37°   Ceiling: 3400
Heat Index: 45°   Visibility: 10mi
Dew Point: 35°   Wind: 20mph
Humidity: 68%   Direction: 190°S
Pressure: 30.02"   Gusts: 26mph
Location:  41.96°N, 80.41°W
Report Text: KERI 230051Z 19017G23KT 10SM OVC034 07/02 A3002 RMK AO2 PK WND 20028/0021 RAE03B16E36 SLP171 P0000 T00720017
Loading
Personal Weather Stations






























Interactive Weather Map New forecast layout! Learn more

10-Day Weather Forecast

Advertisements
Track Severe Weather on mobile